Time;durP1;ratioP1;P1;durP2;ratioP2;P2;SDS_P1;SDS_P2;PMS_P1;PMS_P2;Temp;Humidity;BMP_temperature;BMP_pressure;BME280_temperature;BME280_humidity;BME280_pressure;Samples;Min_cycle;Max_cycle;Signal;HPM_P1;HPM_P2
2021/07/10 00:00:00;;;;;;;15.50;14.05;;;19.00;99.90;;;;;;2106870;28;20026;-67
2021/07/10 00:01:01;;;;;;;14.70;13.23;;;19.00;99.90;;;;;;2106885;28;20372;-68
2021/07/10 00:02:02;;;;;;;15.63;14.10;;;19.00;99.90;;;;;;2106238;28;20028;-68
2021/07/10 00:03:06;;;;;;;15.57;13.85;;;19.00;99.90;;;;;;2107183;28;20047;-67
2021/07/10 00:04:07;;;;;;;16.05;13.13;;;19.00;99.90;;;;;;2106604;28;20073;-67
2021/07/10 00:05:10;;;;;;;15.32;13.88;;;19.00;99.90;;;;;;2106979;28;20516;-68
2021/07/10 00:06:11;;;;;;;14.35;12.93;;;19.00;99.90;;;;;;2105628;28;20024;-68
2021/07/10 00:07:12;;;;;;;15.18;13.48;;;19.00;99.90;;;;;;2106429;28;20097;-68
2021/07/10 00:08:12;;;;;;;14.65;12.73;;;19.00;99.90;;;;;;2106807;28;20438;-68
2021/07/10 00:09:13;;;;;;;13.88;12.50;;;19.00;99.90;;;;;;2106848;28;20119;-68
2021/07/10 00:10:16;;;;;;;13.55;12.30;;;19.00;99.90;;;;;;2106901;28;20474;-68
2021/07/10 00:11:17;;;;;;;15.85;12.40;;;19.00;99.90;;;;;;2106771;28;20115;-68
2021/07/10 00:12:17;;;;;;;14.35;12.18;;;19.00;99.90;;;;;;2106171;28;20036;-68
2021/07/10 00:13:18;;;;;;;16.02;14.23;;;18.90;99.90;;;;;;2106744;28;20045;-68
2021/07/10 00:14:19;;;;;;;15.35;13.75;;;18.90;99.90;;;;;;2107077;28;20020;-68
2021/07/10 00:15:21;;;;;;;14.35;13.00;;;19.00;99.90;;;;;;2106253;28;20021;-68
2021/07/10 00:16:22;;;;;;;15.45;14.02;;;18.90;99.90;;;;;;2107013;28;20031;-68
2021/07/10 00:17:22;;;;;;;15.55;14.05;;;18.90;99.90;;;;;;2106595;28;20486;-68
2021/07/10 00:18:23;;;;;;;15.05;13.38;;;18.90;99.90;;;;;;2106373;28;20016;-68
2021/07/10 00:19:24;;;;;;;13.65;12.30;;;18.90;99.90;;;;;;2106140;28;20030;-68
2021/07/10 00:20:25;;;;;;;14.70;11.93;;;18.90;99.90;;;;;;2107013;28;20036;-68
2021/07/10 00:21:25;;;;;;;12.50;11.40;;;18.90;99.90;;;;;;2106232;28;20107;-68
2021/07/10 00:22:26;;;;;;;13.50;12.23;;;18.90;99.90;;;;;;2106787;28;20429;-68
2021/07/10 00:23:27;;;;;;;14.38;12.88;;;18.80;99.90;;;;;;2106404;28;20020;-68
2021/07/10 00:24:30;;;;;;;14.55;13.15;;;18.80;99.90;;;;;;2106877;28;20024;-68
2021/07/10 00:25:31;;;;;;;13.43;12.23;;;18.80;99.90;;;;;;2106558;28;20024;-68
2021/07/10 00:26:32;;;;;;;13.15;11.98;;;18.80;99.90;;;;;;2106748;28;20024;-68
2021/07/10 00:27:33;;;;;;;14.00;12.60;;;18.80;99.90;;;;;;2106558;28;20023;-68
2021/07/10 00:28:34;;;;;;;14.07;12.68;;;18.80;99.90;;;;;;2106658;28;20101;-68
2021/07/10 00:29:34;;;;;;;12.82;11.48;;;18.80;99.90;;;;;;2106715;28;20301;-68
2021/07/10 00:30:35;;;;;;;13.45;12.05;;;18.70;99.90;;;;;;2106863;28;20032;-68
2021/07/10 00:31:36;;;;;;;12.93;11.70;;;18.80;99.90;;;;;;2105698;28;20035;-67
2021/07/10 00:32:37;;;;;;;14.05;12.30;;;18.70;99.90;;;;;;2106837;28;20047;-68
2021/07/10 00:33:38;;;;;;;13.55;12.35;;;18.70;99.90;;;;;;2106784;28;20091;-68
2021/07/10 00:34:39;;;;;;;13.18;12.05;;;18.70;99.90;;;;;;2106609;28;20032;-68
2021/07/10 00:35:39;;;;;;;14.57;13.27;;;18.70;99.90;;;;;;2106599;28;20475;-68
2021/07/10 00:36:40;;;;;;;14.60;13.27;;;18.70;99.90;;;;;;2106924;28;20024;-68
2021/07/10 00:37:41;;;;;;;13.10;11.90;;;18.70;99.90;;;;;;2106638;28;20016;-67
2021/07/10 00:38:41;;;;;;;13.43;12.13;;;18.70;99.90;;;;;;2106741;28;20028;-67
2021/07/10 00:39:42;;;;;;;12.40;11.40;;;18.60;99.90;;;;;;2106561;28;20028;-68
2021/07/10 00:40:43;;;;;;;14.40;12.95;;;18.60;99.90;;;;;;2105867;28;20479;-68
2021/07/10 00:41:43;;;;;;;12.15;11.00;;;18.60;99.90;;;;;;2105415;28;20036;-68
2021/07/10 00:42:45;;;;;;;14.90;13.43;;;18.60;99.90;;;;;;2106335;28;20027;-68
2021/07/10 00:43:49;;;;;;;11.70;10.63;;;18.60;99.90;;;;;;2106461;28;20027;-68
2021/07/10 00:44:51;;;;;;;14.38;13.00;;;18.60;99.90;;;;;;2106515;28;20039;-68
2021/07/10 00:45:51;;;;;;;14.02;12.48;;;18.60;99.90;;;;;;2105707;28;20020;-68
2021/07/10 00:46:52;;;;;;;12.48;11.35;;;18.50;99.90;;;;;;2105922;28;20028;-68
2021/07/10 00:47:52;;;;;;;13.68;12.38;;;18.50;99.90;;;;;;2106604;28;20090;-68
2021/07/10 00:48:53;;;;;;;12.45;11.20;;;18.50;99.90;;;;;;2106707;28;20493;-68
2021/07/10 00:49:54;;;;;;;13.02;11.82;;;18.50;99.90;;;;;;2105723;28;20032;-68
2021/07/10 00:50:54;;;;;;;14.38;12.98;;;18.50;99.90;;;;;;2105820;28;20063;-68
2021/07/10 00:51:55;;;;;;;12.40;10.43;;;18.50;99.90;;;;;;2105809;28;20032;-68
2021/07/10 00:52:55;;;;;;;12.32;11.13;;;18.50;99.90;;;;;;2106538;28;20016;-67
2021/07/10 00:53:56;;;;;;;11.32;10.23;;;18.40;99.90;;;;;;2106541;28;20055;-68
2021/07/10 00:54:57;;;;;;;13.05;11.75;;;18.40;99.90;;;;;;2106128;28;20091;-68
2021/07/10 00:55:57;;;;;;;13.10;11.90;;;18.40;99.90;;;;;;2106668;28;20023;-68
2021/07/10 00:57:00;;;;;;;13.10;11.80;;;18.40;99.90;;;;;;2106559;28;20020;-68
2021/07/10 00:58:01;;;;;;;14.15;12.73;;;18.40;99.90;;;;;;2106434;28;20368;-68
2021/07/10 00:59:02;;;;;;;14.88;13.27;;;18.40;99.90;;;;;;2106392;28;20467;-68
2021/07/10 01:00:06;;;;;;;12.50;11.48;;;18.30;99.90;;;;;;2106950;28;20382;-68
2021/07/10 01:01:07;;;;;;;13.40;12.20;;;18.30;99.90;;;;;;2106100;28;20016;-68
2021/07/10 01:02:08;;;;;;;12.65;11.45;;;18.30;99.90;;;;;;2102355;28;20206;-68
2021/07/10 01:03:09;;;;;;;11.52;10.43;;;18.30;99.90;;;;;;2106463;28;20077;-68
2021/07/10 01:04:10;;;;;;;12.77;11.57;;;18.30;99.90;;;;;;2106356;28;20108;-68
2021/07/10 01:05:14;;;;;;;12.90;11.65;;;18.30;99.90;;;;;;2106582;28;20027;-68
2021/07/10 01:06:15;;;;;;;11.45;10.45;;;18.30;99.90;;;;;;2106073;28;20085;-68
2021/07/10 01:07:15;;;;;;;12.45;11.30;;;18.20;99.90;;;;;;2106208;28;20050;-68
2021/07/10 01:08:16;;;;;;;11.77;10.77;;;18.20;99.90;;;;;;2106444;28;20451;-68
2021/07/10 01:09:17;;;;;;;13.50;12.10;;;18.20;99.90;;;;;;2106484;28;20051;-68
2021/07/10 01:10:18;;;;;;;22.05;11.68;;;18.20;99.90;;;;;;2106426;28;20062;-68
2021/07/10 01:11:19;;;;;;;13.23;11.77;;;18.20;99.90;;;;;;2105778;28;20118;-68
2021/07/10 01:12:19;;;;;;;11.95;10.93;;;18.20;99.90;;;;;;2105091;28;20050;-68
2021/07/10 01:13:21;;;;;;;12.55;11.40;;;18.20;99.90;;;;;;2106082;28;20043;-67
2021/07/10 01:14:22;;;;;;;12.65;11.50;;;18.20;99.90;;;;;;2106530;28;20417;-68
2021/07/10 01:15:25;;;;;;;11.55;10.45;;;18.20;99.90;;;;;;2106278;28;20032;-68
2021/07/10 01:16:25;;;;;;;11.70;10.60;;;18.10;99.90;;;;;;2106336;28;20024;-68
2021/07/10 01:17:26;;;;;;;12.65;11.55;;;18.10;99.90;;;;;;2106242;28;20095;-68
2021/07/10 01:18:26;;;;;;;12.07;10.93;;;18.10;99.90;;;;;;2106234;28;20035;-68
2021/07/10 01:19:27;;;;;;;11.77;10.55;;;18.10;99.90;;;;;;2106385;28;20024;-68
2021/07/10 01:20:29;;;;;;;12.40;11.10;;;18.10;99.90;;;;;;2106387;28;20379;-68
2021/07/10 01:21:29;;;;;;;12.48;11.27;;;18.10;99.90;;;;;;2105691;28;20020;-68
2021/07/10 01:22:31;;;;;;;11.45;10.35;;;18.10;99.90;;;;;;2106067;28;20012;-68
2021/07/10 01:23:32;;;;;;;11.48;10.35;;;18.10;99.90;;;;;;2106235;28;20024;-68
2021/07/10 01:24:32;;;;;;;12.93;11.65;;;18.10;99.90;;;;;;2106458;28;20459;-68
2021/07/10 01:25:33;;;;;;;13.75;11.30;;;18.00;99.90;;;;;;2105985;28;20016;-68
2021/07/10 01:26:33;;;;;;;14.07;12.55;;;18.00;99.90;;;;;;2106098;28;20062;-68
2021/07/10 01:27:34;;;;;;;12.85;11.57;;;18.00;99.90;;;;;;2106198;28;20024;-68
2021/07/10 01:28:35;;;;;;;13.07;10.82;;;18.00;99.90;;;;;;2106190;28;20032;-68
2021/07/10 01:29:37;;;;;;;12.63;11.40;;;18.00;99.90;;;;;;2106052;28;20086;-67
2021/07/10 01:30:38;;;;;;;12.85;11.55;;;18.00;99.90;;;;;;2106340;28;20028;-67
2021/07/10 01:31:39;;;;;;;12.60;11.35;;;18.00;99.90;;;;;;2105396;28;20024;-67
2021/07/10 01:32:42;;;;;;;12.98;11.40;;;17.90;99.90;;;;;;2106319;28;20138;-67
2021/07/10 01:33:42;;;;;;;11.30;10.23;;;17.90;99.90;;;;;;2105408;28;20479;-67
2021/07/10 01:34:47;;;;;;;11.50;10.40;;;17.90;99.90;;;;;;2105455;28;20431;-68
2021/07/10 01:35:49;;;;;;;12.50;11.23;;;17.90;99.90;;;;;;2105985;28;20051;-68
2021/07/10 01:36:50;;;;;;;12.90;11.70;;;17.90;99.90;;;;;;2106064;28;20048;-68
2021/07/10 01:37:51;;;;;;;12.05;10.85;;;17.90;99.90;;;;;;2105973;28;20031;-68
2021/07/10 01:38:51;;;;;;;11.43;10.43;;;17.90;99.90;;;;;;2106356;28;20058;-68
2021/07/10 01:39:52;;;;;;;11.98;10.95;;;17.80;99.90;;;;;;2105877;28;20024;-68
2021/07/10 01:40:52;;;;;;;12.73;11.57;;;17.80;99.90;;;;;;2106286;28;20081;-68
2021/07/10 01:41:54;;;;;;;11.05;10.02;;;17.90;99.90;;;;;;2105553;28;20542;-68
2021/07/10 01:42:56;;;;;;;13.95;11.43;;;17.80;99.90;;;;;;2106203;28;20459;-67
2021/07/10 01:43:56;;;;;;;13.65;10.63;;;17.80;99.90;;;;;;2105893;28;20062;-67
2021/07/10 01:44:58;;;;;;;11.60;10.13;;;17.80;99.90;;;;;;2105335;28;20561;-67
2021/07/10 01:45:58;;;;;;;11.38;10.35;;;17.80;99.90;;;;;;2105460;28;20379;-67
2021/07/10 01:46:59;;;;;;;11.40;10.27;;;17.80;99.90;;;;;;2106244;28;20020;-67
2021/07/10 01:48:00;;;;;;;9.50;8.63;;;17.70;99.90;;;;;;2105819;28;20046;-67
2021/07/10 01:49:00;;;;;;;11.27;10.10;;;17.80;99.90;;;;;;2106232;28;20028;-67
2021/07/10 01:50:03;;;;;;;11.55;10.50;;;17.70;99.90;;;;;;2106128;28;20020;-68
2021/07/10 01:51:03;;;;;;;11.18;10.18;;;17.70;99.90;;;;;;2106100;28;20024;-68
2021/07/10 01:52:04;;;;;;;10.52;9.60;;;17.70;99.90;;;;;;2105072;28;20631;-68
2021/07/10 01:53:05;;;;;;;11.48;10.27;;;17.70;99.90;;;;;;2105838;28;20020;-68
2021/07/10 01:54:05;;;;;;;12.13;10.93;;;17.70;99.90;;;;;;2105994;28;20031;-68
2021/07/10 01:55:09;;;;;;;14.15;10.40;;;17.70;99.90;;;;;;2105460;28;20032;-68
2021/07/10 01:56:10;;;;;;;10.93;10.02;;;17.70;99.90;;;;;;2105233;28;20533;-67
2021/07/10 01:57:11;;;;;;;16.00;9.18;;;17.70;99.90;;;;;;2106206;28;20489;-68
2021/07/10 01:58:12;;;;;;;10.23;9.02;;;17.60;99.90;;;;;;2105979;28;20017;-68
2021/07/10 01:59:12;;;;;;;11.43;10.30;;;17.70;99.90;;;;;;2105915;28;20116;-68
2021/07/10 02:00:17;;;;;;;9.88;8.98;;;17.60;99.90;;;;;;2101444;28;20070;-68
2021/07/10 02:01:18;;;;;;;9.80;8.60;;;17.60;99.90;;;;;;2099683;28;20063;-68
2021/07/10 02:02:19;;;;;;;10.82;9.82;;;17.60;99.90;;;;;;2105142;28;20031;-68
2021/07/10 02:03:19;;;;;;;10.80;9.90;;;17.60;99.90;;;;;;2105252;28;20055;-67
2021/07/10 02:04:21;;;;;;;11.48;10.32;;;17.60;99.90;;;;;;2104969;28;20487;-67
2021/07/10 02:05:24;;;;;;;11.32;10.07;;;17.60;99.90;;;;;;2106050;28;20024;-68
2021/07/10 02:06:25;;;;;;;11.95;10.75;;;17.60;99.90;;;;;;2105966;28;20024;-68
2021/07/10 02:07:25;;;;;;;12.90;10.57;;;17.60;99.90;;;;;;2105989;28;20055;-68
2021/07/10 02:08:26;;;;;;;12.13;11.02;;;17.50;99.90;;;;;;2105914;28;20104;-68
2021/07/10 02:09:26;;;;;;;11.43;10.25;;;17.50;99.90;;;;;;2106367;28;20094;-68
2021/07/10 02:10:29;;;;;;;12.10;9.73;;;17.50;99.90;;;;;;2105795;28;20024;-68
2021/07/10 02:11:29;;;;;;;11.75;10.48;;;17.50;99.90;;;;;;2105590;28;20455;-68
2021/07/10 02:12:30;;;;;;;11.40;10.27;;;17.50;99.90;;;;;;2105680;28;20032;-68
2021/07/10 02:13:31;;;;;;;11.57;10.43;;;17.50;99.90;;;;;;2105571;28;20475;-68
2021/07/10 02:14:31;;;;;;;11.20;10.13;;;17.50;99.90;;;;;;2105770;28;20028;-67
2021/07/10 02:15:32;;;;;;;11.02;9.98;;;17.50;99.90;;;;;;2105950;28;20058;-67
2021/07/10 02:16:32;;;;;;;12.02;9.82;;;17.40;99.90;;;;;;2105809;28;20027;-67
2021/07/10 02:17:33;;;;;;;12.07;10.77;;;17.40;99.90;;;;;;2106124;28;20024;-68
2021/07/10 02:18:34;;;;;;;13.70;11.38;;;17.40;99.90;;;;;;2105806;28;20028;-68
2021/07/10 02:19:35;;;;;;;11.68;9.75;;;17.40;99.90;;;;;;2106054;28;20032;-68
2021/07/10 02:20:36;;;;;;;13.05;10.90;;;17.40;99.90;;;;;;2105811;28;20028;-68
2021/07/10 02:21:38;;;;;;;14.30;11.02;;;17.40;99.90;;;;;;2105023;28;20050;-68
2021/07/10 02:22:39;;;;;;;12.65;11.27;;;17.40;99.90;;;;;;2105803;28;20036;-68
2021/07/10 02:23:39;;;;;;;12.32;11.02;;;17.30;99.90;;;;;;2105907;28;20032;-68
2021/07/10 02:24:40;;;;;;;13.57;12.15;;;17.30;99.90;;;;;;2105748;28;20053;-68
2021/07/10 02:25:40;;;;;;;13.82;12.15;;;17.30;99.90;;;;;;2106039;28;20020;-68
2021/07/10 02:26:41;;;;;;;13.40;12.13;;;17.30;99.90;;;;;;2105709;28;20169;-68
2021/07/10 02:27:42;;;;;;;12.63;11.45;;;17.30;99.90;;;;;;2106191;28;20020;-68
2021/07/10 02:28:42;;;;;;;12.02;10.70;;;17.30;99.90;;;;;;2105670;28;20016;-68
2021/07/10 02:29:43;;;;;;;10.48;9.45;;;17.30;99.90;;;;;;2105829;28;20662;-68
2021/07/10 02:30:44;;;;;;;12.27;10.82;;;17.30;99.90;;;;;;2105217;28;20540;-68
2021/07/10 02:31:44;;;;;;;11.55;10.45;;;17.30;99.90;;;;;;2104569;28;20074;-68
2021/07/10 02:32:46;;;;;;;11.07;9.85;;;17.30;99.90;;;;;;2105322;28;20111;-68
2021/07/10 02:33:47;;;;;;;13.13;11.15;;;17.30;99.90;;;;;;2105076;28;20514;-68
2021/07/10 02:34:47;;;;;;;11.40;10.35;;;17.20;99.90;;;;;;2105889;28;20474;-68
2021/07/10 02:35:49;;;;;;;10.38;9.23;;;17.20;99.90;;;;;;2105870;28;20102;-68
2021/07/10 02:36:50;;;;;;;12.05;10.85;;;17.20;99.90;;;;;;2105751;28;20019;-68
2021/07/10 02:37:51;;;;;;;11.13;10.02;;;17.20;99.90;;;;;;2105811;28;20017;-68
2021/07/10 02:38:51;;;;;;;13.35;10.20;;;17.20;99.90;;;;;;2106152;28;20025;-67
2021/07/10 02:39:52;;;;;;;11.98;10.50;;;17.20;99.90;;;;;;2105968;28;20024;-68
2021/07/10 02:40:53;;;;;;;13.48;11.23;;;17.10;99.90;;;;;;2105969;28;20039;-68
2021/07/10 02:41:53;;;;;;;10.60;9.60;;;17.10;99.90;;;;;;2105047;28;20024;-68
2021/07/10 02:42:54;;;;;;;12.20;10.18;;;17.20;99.90;;;;;;2105668;28;20085;-68
2021/07/10 02:43:54;;;;;;;11.65;10.45;;;17.10;99.90;;;;;;2105843;28;20055;-68
2021/07/10 02:44:55;;;;;;;12.18;11.07;;;17.10;99.90;;;;;;2105686;28;20050;-68
2021/07/10 02:45:55;;;;;;;14.27;11.73;;;17.10;99.90;;;;;;2105648;28;20093;-68
2021/07/10 02:46:56;;;;;;;12.55;11.38;;;17.10;99.90;;;;;;2106043;28;20141;-68
2021/07/10 02:47:57;;;;;;;12.23;10.52;;;17.10;99.90;;;;;;2105801;28;20024;-68
2021/07/10 02:48:58;;;;;;;11.77;10.73;;;17.10;99.90;;;;;;2105814;28;20027;-68
2021/07/10 02:49:59;;;;;;;13.15;11.77;;;17.10;99.90;;;;;;2105886;28;20030;-67
2021/07/10 02:51:00;;;;;;;12.13;10.68;;;17.00;99.90;;;;;;2105900;28;20659;-67
2021/07/10 02:52:00;;;;;;;11.57;10.38;;;17.00;99.90;;;;;;2105085;28;20031;-67
2021/07/10 02:53:01;;;;;;;12.88;10.90;;;17.00;99.90;;;;;;2105580;28;20638;-68
2021/07/10 02:54:02;;;;;;;12.77;11.45;;;17.00;99.90;;;;;;2105478;28;20798;-68
2021/07/10 02:55:04;;;;;;;13.43;11.75;;;17.00;99.90;;;;;;2105976;28;20012;-68
2021/07/10 02:56:05;;;;;;;13.82;11.57;;;17.00;99.90;;;;;;2105537;28;20023;-68
2021/07/10 02:57:06;;;;;;;12.15;10.75;;;17.00;99.90;;;;;;2105921;28;20016;-68
2021/07/10 02:58:06;;;;;;;13.32;11.65;;;17.00;99.90;;;;;;2105924;28;20025;-68
2021/07/10 02:59:07;;;;;;;13.38;12.07;;;17.00;99.90;;;;;;2105828;28;20070;-68
2021/07/10 03:00:11;;;;;;;10.75;9.75;;;16.90;99.90;;;;;;2105806;28;20463;-68
2021/07/10 03:01:12;;;;;;;13.48;11.23;;;16.90;99.90;;;;;;2106007;28;20022;-68
2021/07/10 03:02:12;;;;;;;12.85;11.55;;;16.90;99.90;;;;;;2105138;28;20032;-68
2021/07/10 03:03:13;;;;;;;12.05;10.93;;;16.90;99.90;;;;;;2105851;28;20485;-68
2021/07/10 03:04:13;;;;;;;10.52;9.35;;;16.90;99.90;;;;;;2105857;28;20055;-68
2021/07/10 03:05:15;;;;;;;10.30;9.38;;;16.90;99.90;;;;;;2107293;28;20020;-68
2021/07/10 03:06:15;;;;;;;10.95;9.90;;;16.90;99.90;;;;;;2107260;28;20459;-67
2021/07/10 03:07:16;;;;;;;13.88;12.02;;;16.90;99.90;;;;;;2107389;28;20028;-68
2021/07/10 03:08:20;;;;;;;12.35;10.15;;;16.90;99.90;;;;;;2107445;28;20032;-68
2021/07/10 03:09:20;;;;;;;11.82;10.82;;;16.80;99.90;;;;;;2107497;28;20035;-68
2021/07/10 03:10:25;;;;;;;13.27;11.88;;;16.80;99.90;;;;;;2107244;28;20118;-68
2021/07/10 03:11:25;;;;;;;14.13;11.23;;;16.80;99.90;;;;;;2107039;28;20108;-68
2021/07/10 03:12:26;;;;;;;11.77;10.68;;;16.80;99.90;;;;;;2106799;28;20097;-68
2021/07/10 03:13:27;;;;;;;9.55;8.70;;;16.80;99.90;;;;;;2107407;28;20047;-68
2021/07/10 03:14:27;;;;;;;10.35;9.48;;;16.80;99.90;;;;;;2107351;28;20073;-68
2021/07/10 03:15:28;;;;;;;12.40;11.10;;;16.80;99.90;;;;;;2106980;28;20524;-68
2021/07/10 03:16:29;;;;;;;12.48;11.27;;;16.80;99.90;;;;;;2107204;28;20024;-68
2021/07/10 03:17:29;;;;;;;15.10;11.77;;;16.80;99.90;;;;;;2107405;28;20021;-68
2021/07/10 03:18:30;;;;;;;11.75;10.38;;;16.80;99.90;;;;;;2107294;28;20012;-68
2021/07/10 03:19:30;;;;;;;11.15;10.15;;;16.70;99.90;;;;;;2106519;28;20024;-67
2021/07/10 03:20:31;;;;;;;11.60;10.48;;;16.80;99.90;;;;;;2106749;28;20541;-67
2021/07/10 03:21:32;;;;;;;13.18;11.68;;;16.80;99.90;;;;;;2106591;28;20074;-67
2021/07/10 03:22:33;;;;;;;12.00;10.77;;;16.70;99.90;;;;;;2107401;28;20074;-68
2021/07/10 03:23:34;;;;;;;13.63;11.98;;;16.70;99.90;;;;;;2107039;28;20032;-68
2021/07/10 03:24:35;;;;;;;12.27;11.05;;;16.70;99.90;;;;;;2107501;28;20040;-68
2021/07/10 03:25:37;;;;;;;14.30;11.07;;;16.70;99.90;;;;;;2107277;28;20028;-68
2021/07/10 03:26:37;;;;;;;14.68;11.15;;;16.70;99.90;;;;;;2107242;28;20114;-68
2021/07/10 03:27:38;;;;;;;12.75;11.50;;;16.70;99.90;;;;;;2107009;28;20035;-68
2021/07/10 03:28:40;;;;;;;12.95;11.75;;;16.70;99.90;;;;;;2107476;28;20048;-68
2021/07/10 03:29:41;;;;;;;13.43;12.02;;;16.70;99.90;;;;;;2107159;28;20435;-67
2021/07/10 03:30:42;;;;;;;11.27;10.15;;;16.70;99.90;;;;;;2107355;28;20020;-67
2021/07/10 03:31:43;;;;;;;13.80;10.68;;;16.70;99.90;;;;;;2106222;28;20479;-68
2021/07/10 03:32:43;;;;;;;18.98;13.07;;;16.70;99.90;;;;;;2107042;28;20421;-68
2021/07/10 03:33:44;;;;;;;14.57;12.77;;;16.70;99.90;;;;;;2107192;28;20023;-68
2021/07/10 03:34:45;;;;;;;12.93;11.40;;;16.70;99.90;;;;;;2107221;28;20106;-67
2021/07/10 03:35:45;;;;;;;14.02;12.57;;;16.70;99.90;;;;;;2107236;28;20052;-68
2021/07/10 03:36:46;;;;;;;19.52;13.32;;;16.70;99.90;;;;;;2107187;28;20831;-68
2021/07/10 03:37:48;;;;;;;13.48;12.23;;;16.70;99.90;;;;;;2107022;28;20160;-68
2021/07/10 03:38:48;;;;;;;12.57;11.38;;;16.70;99.90;;;;;;2107197;28;20028;-68
2021/07/10 03:39:49;;;;;;;13.10;11.10;;;16.70;99.90;;;;;;2107069;28;20021;-68
2021/07/10 03:40:50;;;;;;;15.13;12.85;;;16.60;99.90;;;;;;2106960;28;20024;-68
2021/07/10 03:41:50;;;;;;;12.25;11.05;;;16.60;99.90;;;;;;2106222;28;20097;-68
2021/07/10 03:42:51;;;;;;;14.57;13.00;;;16.60;99.90;;;;;;2107266;28;20048;-68
2021/07/10 03:43:52;;;;;;;16.27;13.48;;;16.70;99.90;;;;;;2107303;28;20028;-68
2021/07/10 03:44:53;;;;;;;13.25;11.88;;;16.60;99.90;;;;;;2107104;28;20047;-68
2021/07/10 03:45:53;;;;;;;15.70;14.18;;;16.70;99.90;;;;;;2106926;28;20066;-68
2021/07/10 03:46:54;;;;;;;18.23;14.13;;;16.70;99.90;;;;;;2107048;28;20028;-68
2021/07/10 03:47:54;;;;;;;18.73;14.77;;;16.70;99.90;;;;;;2107190;28;20357;-68
2021/07/10 03:48:55;;;;;;;14.60;12.38;;;16.70;99.90;;;;;;2107133;28;20039;-67
2021/07/10 03:49:56;;;;;;;14.23;12.73;;;16.70;99.90;;;;;;2106811;28;20390;-68
2021/07/10 03:50:58;;;;;;;15.57;13.98;;;16.70;99.90;;;;;;2107095;28;20047;-68
2021/07/10 03:51:58;;;;;;;13.98;12.60;;;16.60;99.90;;;;;;2106016;28;20379;-68
2021/07/10 03:52:59;;;;;;;14.52;13.15;;;16.70;99.90;;;;;;2107077;28;20020;-68
2021/07/10 03:54:00;;;;;;;16.52;13.00;;;16.70;99.90;;;;;;2107014;28;20379;-68
2021/07/10 03:55:01;;;;;;;14.18;12.63;;;16.70;99.90;;;;;;2107044;28;20012;-68
2021/07/10 03:56:01;;;;;;;14.15;12.65;;;16.60;99.90;;;;;;2107086;28;20464;-68
2021/07/10 03:57:03;;;;;;;14.88;13.50;;;16.70;99.90;;;;;;2106708;28;20402;-67
2021/07/10 03:58:03;;;;;;;15.52;13.82;;;16.70;99.90;;;;;;2107096;28;20020;-67
2021/07/10 03:59:04;;;;;;;16.20;13.38;;;16.70;99.90;;;;;;2106864;28;20055;-67
2021/07/10 04:00:07;;;;;;;15.88;13.90;;;16.70;99.90;;;;;;2107133;28;20087;-68
2021/07/10 04:01:07;;;;;;;15.73;13.73;;;16.70;99.90;;;;;;2106729;28;20428;-68
2021/07/10 04:02:08;;;;;;;16.52;14.88;;;16.70;99.90;;;;;;2105951;28;20032;-68
2021/07/10 04:03:09;;;;;;;16.70;14.73;;;16.70;99.90;;;;;;2106837;28;20059;-67
2021/07/10 04:04:09;;;;;;;15.32;13.88;;;16.70;99.90;;;;;;2107129;28;20032;-68
2021/07/10 04:05:10;;;;;;;20.73;15.70;;;16.70;99.90;;;;;;2106806;28;20364;-67
2021/07/10 04:06:11;;;;;;;17.52;14.70;;;16.70;99.90;;;;;;2107055;28;20050;-68
2021/07/10 04:07:11;;;;;;;19.63;17.50;;;16.70;99.90;;;;;;2106497;28;20020;-68
2021/07/10 04:08:12;;;;;;;21.75;17.27;;;16.70;99.90;;;;;;2107008;28;20047;-68
2021/07/10 04:09:13;;;;;;;21.17;17.92;;;16.80;99.90;;;;;;2106830;28;20032;-68
2021/07/10 04:10:14;;;;;;;19.38;17.17;;;16.80;99.90;;;;;;2107087;28;20028;-68
2021/07/10 04:11:15;;;;;;;22.52;19.60;;;16.80;99.90;;;;;;2106481;28;20122;-68
2021/07/10 04:12:15;;;;;;;22.63;18.27;;;16.90;99.90;;;;;;2106285;28;20090;-68
2021/07/10 04:13:16;;;;;;;14.52;13.18;;;16.90;99.90;;;;;;2106842;28;20028;-68
2021/07/10 04:14:16;;;;;;;18.95;17.02;;;16.90;99.90;;;;;;2107154;28;20040;-68
2021/07/10 04:15:18;;;;;;;19.85;17.88;;;17.00;99.90;;;;;;2106537;28;20751;-68
2021/07/10 04:16:19;;;;;;;18.35;16.50;;;17.00;99.90;;;;;;2106966;28;20023;-68
2021/07/10 04:17:19;;;;;;;17.02;15.27;;;17.10;99.90;;;;;;2106599;28;20099;-68
2021/07/10 04:18:20;;;;;;;20.52;15.43;;;17.10;99.90;;;;;;2106860;28;20368;-68
2021/07/10 04:19:20;;;;;;;17.77;14.80;;;17.10;99.90;;;;;;2106804;28;20020;-68
2021/07/10 04:20:21;;;;;;;17.65;15.95;;;17.20;99.90;;;;;;2106607;28;20032;-68
2021/07/10 04:21:22;;;;;;;17.33;14.68;;;17.30;99.90;;;;;;2106398;28;20498;-68
2021/07/10 04:22:23;;;;;;;16.77;15.07;;;17.30;99.90;;;;;;2106710;28;20024;-68
2021/07/10 04:23:25;;;;;;;16.38;14.80;;;17.40;99.90;;;;;;2106639;28;20054;-68
2021/07/10 04:24:25;;;;;;;17.33;15.68;;;17.40;99.90;;;;;;2106950;28;20035;-68
2021/07/10 04:25:26;;;;;;;22.63;18.95;;;17.50;99.90;;;;;;2106775;28;20055;-68
2021/07/10 04:26:26;;;;;;;21.35;19.10;;;17.60;99.90;;;;;;2106671;28;20530;-68
2021/07/10 04:27:27;;;;;;;20.35;17.27;;;17.70;99.90;;;;;;2106637;28;20070;-68
2021/07/10 04:28:27;;;;;;;21.48;19.38;;;17.80;99.90;;;;;;2106863;28;20020;-68
2021/07/10 04:29:28;;;;;;;19.75;17.63;;;17.90;99.90;;;;;;2106814;28;20032;-68
2021/07/10 04:30:29;;;;;;;23.08;19.45;;;18.10;99.90;;;;;;2106540;28;20024;-68
2021/07/10 04:31:29;;;;;;;21.00;18.33;;;18.20;99.90;;;;;;2105829;28;20489;-68
2021/07/10 04:32:30;;;;;;;19.85;17.88;;;18.30;99.90;;;;;;2106334;28;20024;-68
2021/07/10 04:33:30;;;;;;;21.13;17.75;;;18.50;99.90;;;;;;2106645;28;20032;-67
2021/07/10 04:34:31;;;;;;;19.90;17.42;;;18.60;99.90;;;;;;2106589;28;20478;-68
2021/07/10 04:35:32;;;;;;;20.25;18.25;;;18.70;99.90;;;;;;2106757;28;20474;-68
2021/07/10 04:36:33;;;;;;;19.58;17.50;;;18.70;99.90;;;;;;2106638;28;20008;-68
2021/07/10 04:37:34;;;;;;;18.65;16.75;;;18.70;99.90;;;;;;2106592;28;20099;-68
2021/07/10 04:38:37;;;;;;;19.15;17.25;;;18.70;99.90;;;;;;2106506;28;20032;-68
2021/07/10 04:39:37;;;;;;;18.48;16.67;;;18.70;99.90;;;;;;2106537;28;20025;-68
2021/07/10 04:40:38;;;;;;;19.17;17.27;;;18.70;99.90;;;;;;2106629;28;20055;-68
2021/07/10 04:41:39;;;;;;;17.92;15.27;;;18.70;99.90;;;;;;2106198;28;20058;-68
2021/07/10 04:42:41;;;;;;;18.95;16.95;;;18.80;99.90;;;;;;2106465;28;20498;-68
2021/07/10 04:43:41;;;;;;;18.20;15.82;;;18.80;99.90;;;;;;2106870;28;20020;-68
2021/07/10 04:44:43;;;;;;;17.48;15.73;;;18.80;99.90;;;;;;2106529;28;20020;-68
2021/07/10 04:45:43;;;;;;;18.85;16.92;;;18.80;99.90;;;;;;2106770;28;20051;-68
2021/07/10 04:46:44;;;;;;;15.95;14.27;;;18.90;99.90;;;;;;2106548;28;20028;-68
2021/07/10 04:47:44;;;;;;;16.35;14.65;;;18.90;99.90;;;;;;2106569;28;20047;-68
2021/07/10 04:48:45;;;;;;;16.27;14.07;;;19.00;99.90;;;;;;2106029;28;20024;-68
2021/07/10 04:49:46;;;;;;;15.43;13.82;;;19.00;99.90;;;;;;2106607;28;20028;-68
2021/07/10 04:50:46;;;;;;;15.82;14.23;;;19.00;99.90;;;;;;2106461;28;20027;-68
2021/07/10 04:51:47;;;;;;;15.43;13.82;;;19.00;99.90;;;;;;2105966;28;20032;-68
2021/07/10 04:52:48;;;;;;;15.32;13.75;;;19.10;99.90;;;;;;2106396;28;20031;-68
2021/07/10 04:53:48;;;;;;;16.63;14.85;;;19.20;99.90;;;;;;2106534;28;20028;-68
2021/07/10 04:54:49;;;;;;;13.75;12.38;;;19.20;99.90;;;;;;2106620;28;20109;-68
2021/07/10 04:55:49;;;;;;;19.05;13.45;;;19.30;99.90;;;;;;2106740;28;20031;-68
2021/07/10 04:56:50;;;;;;;16.80;13.32;;;19.30;99.90;;;;;;2106414;28;20352;-68
2021/07/10 04:57:50;;;;;;;14.68;13.27;;;19.40;99.90;;;;;;2106678;28;20055;-68
2021/07/10 04:58:51;;;;;;;15.90;14.38;;;19.40;99.90;;;;;;2106394;28;20036;-68
2021/07/10 04:59:52;;;;;;;15.05;13.52;;;19.50;99.90;;;;;;2106303;28;20031;-68
2021/07/10 05:00:52;;;;;;;16.58;14.88;;;19.50;99.90;;;;;;2105447;28;20031;-68
2021/07/10 05:01:53;;;;;;;16.17;13.88;;;19.60;99.90;;;;;;2105104;28;20099;-68
2021/07/10 05:02:53;;;;;;;15.27;13.68;;;19.70;99.90;;;;;;2106319;28;20059;-68
2021/07/10 05:03:54;;;;;;;15.73;13.75;;;19.70;99.90;;;;;;2106191;28;20372;-68
2021/07/10 05:04:54;;;;;;;18.55;16.65;;;19.80;99.90;;;;;;2106506;28;20024;-68
2021/07/10 05:05:55;;;;;;;18.25;16.45;;;19.90;99.90;;;;;;2106486;28;20056;-68
2021/07/10 05:06:55;;;;;;;16.45;14.82;;;19.90;99.90;;;;;;2106443;28;20488;-68
2021/07/10 05:07:56;;;;;;;15.38;13.98;;;20.00;99.90;;;;;;2106137;28;20030;-68
2021/07/10 05:08:57;;;;;;;16.92;15.27;;;20.00;99.90;;;;;;2106340;28;20501;-68